createdAt,value
2022-08-24T00:00:49.610Z,77.39
2022-08-24T00:01:49.669Z,77.94
2022-08-24T00:02:49.661Z,77.94
2022-08-24T00:03:49.608Z,78.44
2022-08-24T00:04:50.586Z,78.04
2022-08-24T00:05:49.579Z,77.84
2022-08-24T00:06:49.594Z,77.84
2022-08-24T00:07:49.559Z,78.24
2022-08-24T00:08:49.554Z,78.55
2022-08-24T00:09:50.691Z,78.34
2022-08-24T00:10:49.536Z,78.85
2022-08-24T00:11:49.555Z,78.85
2022-08-24T00:12:49.525Z,78.44
2022-08-24T00:13:49.538Z,78.85
2022-08-24T00:14:49.613Z,78.88
2022-08-24T00:15:49.510Z,79.19
2022-08-24T00:16:49.583Z,79.39
2022-08-24T00:17:49.503Z,79.83
2022-08-24T00:18:49.485Z,79.59
2022-08-24T00:19:49.477Z,79.49
2022-08-24T00:20:49.468Z,79.19
2022-08-24T00:21:49.527Z,78.88
2022-08-24T00:22:49.450Z,78.48
2022-08-24T00:23:49.492Z,78.78
2022-08-24T00:24:49.439Z,79.29
2022-08-24T00:25:49.435Z,79.59
2022-08-24T00:26:49.448Z,79.49
2022-08-24T00:27:49.412Z,79.39
2022-08-24T00:28:49.405Z,79.63
2022-08-24T00:29:49.396Z,79.79
2022-08-24T00:30:49.389Z,79.69
2022-08-24T00:31:49.453Z,79.90
2022-08-24T00:32:49.382Z,79.73
2022-08-24T00:33:49.387Z,79.93
2022-08-24T00:34:58.174Z,80.24
2022-08-24T00:35:50.355Z,80.27
2022-08-24T00:36:49.370Z,80.27
2022-08-24T00:37:49.339Z,80.27
2022-08-24T00:38:49.334Z,80.58
2022-08-24T00:39:49.348Z,80.38
2022-08-24T00:40:49.315Z,80.68
2022-08-24T00:41:49.332Z,80.38
2022-08-24T00:42:49.302Z,80.38
2022-08-24T00:43:49.309Z,80.38
2022-08-24T00:44:49.284Z,80.58
2022-08-24T00:45:49.340Z,80.78
2022-08-24T00:46:49.295Z,81.23
2022-08-24T00:47:49.263Z,81.83
2022-08-24T00:48:49.257Z,82.17
2022-08-24T00:49:49.248Z,82.44
2022-08-24T00:50:49.241Z,82.75
2022-08-24T00:51:49.258Z,82.44
2022-08-24T00:52:49.230Z,82.44
2022-08-24T00:53:49.224Z,82.44
2022-08-24T00:54:49.213Z,82.48
2022-08-24T00:55:49.203Z,82.44
2022-08-24T00:56:49.222Z,81.93
2022-08-24T00:57:49.186Z,81.73
2022-08-24T00:58:57.067Z,81.43
2022-08-24T00:59:50.175Z,81.63
2022-08-24T01:00:49.238Z,81.39
2022-08-24T01:01:49.219Z,81.39
2022-08-24T01:02:49.211Z,80.98
2022-08-24T01:03:52.371Z,81.09
2022-08-24T01:04:50.134Z,81.39
2022-08-24T01:05:49.132Z,81.52
2022-08-24T01:06:49.147Z,81.73
2022-08-24T01:07:49.115Z,81.63
2022-08-24T01:08:56.294Z,82.54
2022-08-24T01:09:50.100Z,82.44
2022-08-24T01:10:49.090Z,82.34
2022-08-24T01:11:49.114Z,82.34
2022-08-24T01:13:00.348Z,82.03
2022-08-24T01:13:50.070Z,82.03
2022-08-24T01:14:49.061Z,81.83
2022-08-24T01:15:49.132Z,81.93
2022-08-24T01:16:49.076Z,82.14
2022-08-24T01:17:49.041Z,82.48
2022-08-24T01:18:49.035Z,82.68
2022-08-24T01:19:49.023Z,83.03
2022-08-24T01:20:49.022Z,83.09
2022-08-24T01:21:49.068Z,82.72
2022-08-24T01:22:49.000Z,83.33
2022-08-24T01:23:48.999Z,83.77
2022-08-24T01:24:48.997Z,84.08
2022-08-24T01:25:48.985Z,84.42
2022-08-24T01:26:49.013Z,84.83
2022-08-24T01:27:48.970Z,85.33
2022-08-24T01:28:48.963Z,85.53
2022-08-24T01:29:48.954Z,85.38
2022-08-24T01:30:48.944Z,85.64
2022-08-24T01:31:48.983Z,85.53
2022-08-24T01:32:48.966Z,85.58
2022-08-24T01:33:48.938Z,85.53
2022-08-24T01:34:48.913Z,85.44
2022-08-24T01:35:48.911Z,85.74
2022-08-24T01:36:48.907Z,85.53
2022-08-24T01:37:48.928Z,85.03
2022-08-24T01:38:48.886Z,85.03
2022-08-24T01:39:48.894Z,85.64
2022-08-24T01:40:48.899Z,85.64
2022-08-24T01:41:48.887Z,85.68
2022-08-24T01:42:48.886Z,85.58
2022-08-24T01:43:48.869Z,85.64
2022-08-24T01:44:48.838Z,85.78
2022-08-24T01:45:48.825Z,85.64
2022-08-24T01:46:48.986Z,85.84
2022-08-24T01:47:48.841Z,85.53
2022-08-24T01:48:48.820Z,85.44
2022-08-24T01:49:48.806Z,85.64
2022-08-24T01:50:48.796Z,85.53
2022-08-24T01:51:48.812Z,85.74
2022-08-24T01:53:23.338Z,85.33
2022-08-24T01:53:48.776Z,85.53
2022-08-24T01:54:49.476Z,84.83
2022-08-24T01:55:48.757Z,85.13
2022-08-24T01:56:48.757Z,84.52
2022-08-24T01:57:48.770Z,84.63
2022-08-24T01:58:48.736Z,84.72
2022-08-24T01:59:48.728Z,84.42
2022-08-24T02:00:48.725Z,84.32
2022-08-24T02:01:48.760Z,84.28
2022-08-24T02:02:48.786Z,83.87
2022-08-24T02:03:51.762Z,83.87
2022-08-24T02:04:48.690Z,84.22
2022-08-24T02:05:48.682Z,84.32
2022-08-24T02:06:48.677Z,85.24
2022-08-24T02:07:48.698Z,85.68
2022-08-24T02:08:48.664Z,85.78
2022-08-24T02:09:48.657Z,85.88
2022-08-24T02:10:54.919Z,85.68
2022-08-24T02:11:49.637Z,85.68
2022-08-24T02:12:48.678Z,85.78
2022-08-24T02:13:48.625Z,85.68
2022-08-24T02:14:48.626Z,85.68
2022-08-24T02:15:48.626Z,85.68
2022-08-24T02:16:48.603Z,85.78
2022-08-24T02:17:48.623Z,86.08
2022-08-24T02:18:48.603Z,86.29
2022-08-24T02:19:48.585Z,86.63
2022-08-24T02:20:48.570Z,86.74
2022-08-24T02:21:48.570Z,86.83
2022-08-24T02:22:48.584Z,87.04
2022-08-24T02:23:48.552Z,87.24
2022-08-24T02:24:48.545Z,86.94
2022-08-24T02:25:48.537Z,87.24
2022-08-24T02:26:48.531Z,87.34
2022-08-24T02:27:48.550Z,87.24
2022-08-24T02:28:48.511Z,87.34
2022-08-24T02:29:48.501Z,87.75
2022-08-24T02:30:48.549Z,87.55
2022-08-24T02:31:48.497Z,87.65
2022-08-24T02:32:48.503Z,87.49
2022-08-24T02:33:48.476Z,87.85
2022-08-24T02:34:48.468Z,87.59
2022-08-24T02:35:48.457Z,87.49
2022-08-24T02:36:48.447Z,87.79
2022-08-24T02:37:48.464Z,88.20
2022-08-24T02:38:48.433Z,88.60
2022-08-24T02:39:48.482Z,88.20
2022-08-24T02:40:48.419Z,88.20
2022-08-24T02:41:48.411Z,88.30
2022-08-24T02:42:48.442Z,88.60
2022-08-24T02:43:48.392Z,88.20
2022-08-24T02:44:49.456Z,87.59
2022-08-24T02:45:50.552Z,87.79
2022-08-24T02:46:49.397Z,87.34
2022-08-24T02:47:48.387Z,87.04
2022-08-24T02:48:57.493Z,87.14
2022-08-24T02:49:49.342Z,87.14
2022-08-24T02:50:48.332Z,87.04
2022-08-24T02:51:48.327Z,86.53
2022-08-24T02:52:48.344Z,86.74
2022-08-24T02:53:48.307Z,87.04
2022-08-24T02:54:48.299Z,87.38
2022-08-24T02:55:48.298Z,87.53
2022-08-24T02:56:48.294Z,87.69
2022-08-24T02:57:48.324Z,87.79
2022-08-24T02:58:48.269Z,87.63
2022-08-24T02:59:48.255Z,87.93
2022-08-24T03:00:48.257Z,87.29
2022-08-24T03:01:49.865Z,87.69
2022-08-24T03:02:48.310Z,87.73
2022-08-24T03:03:48.232Z,87.93
2022-08-24T03:04:49.517Z,88.34
2022-08-24T03:05:48.221Z,88.24
2022-08-24T03:06:48.214Z,88.44
2022-08-24T03:07:48.264Z,88.44
2022-08-24T03:08:56.203Z,88.65
2022-08-24T03:09:49.181Z,88.79
2022-08-24T03:10:49.181Z,88.89
2022-08-24T03:11:48.168Z,89.05
2022-08-24T03:12:48.185Z,89.05
2022-08-24T03:13:48.158Z,89.26
2022-08-24T03:14:48.152Z,88.95
2022-08-24T03:15:48.172Z,88.95
2022-08-24T03:16:48.137Z,88.85
2022-08-24T03:17:48.159Z,88.95
2022-08-24T03:18:48.126Z,89.05
2022-08-24T03:19:48.123Z,89.15
2022-08-24T03:20:48.111Z,88.75
2022-08-24T03:21:48.101Z,89.05
2022-08-24T03:22:48.120Z,89.15
2022-08-24T03:23:48.085Z,88.85
2022-08-24T03:24:48.071Z,88.50
2022-08-24T03:25:48.064Z,88.10
2022-08-24T03:26:48.065Z,88.13
2022-08-24T03:27:48.079Z,88.65
2022-08-24T03:28:49.606Z,88.85
2022-08-24T03:29:48.032Z,88.24
2022-08-24T03:30:48.475Z,87.84
2022-08-24T03:31:48.024Z,88.13
2022-08-24T03:32:48.058Z,88.44
2022-08-24T03:33:48.003Z,87.73
2022-08-24T03:34:47.998Z,87.93
2022-08-24T03:35:47.994Z,88.24
2022-08-24T03:36:47.982Z,88.34
2022-08-24T03:37:47.998Z,88.24
2022-08-24T03:38:47.965Z,88.44
2022-08-24T03:39:48.004Z,88.24
2022-08-24T03:40:47.951Z,88.34
2022-08-24T03:41:47.958Z,88.13
2022-08-24T03:42:47.969Z,88.24
2022-08-24T03:43:47.938Z,88.54
2022-08-24T03:44:47.926Z,88.34
2022-08-24T03:45:47.968Z,87.93
2022-08-24T03:46:47.908Z,87.84
2022-08-24T03:47:47.930Z,87.84
2022-08-24T03:48:47.891Z,87.84
2022-08-24T03:49:47.885Z,88.04
2022-08-24T03:50:47.887Z,87.53
2022-08-24T03:51:47.876Z,88.34
2022-08-24T03:52:47.889Z,88.75
2022-08-24T03:53:47.855Z,88.54
2022-08-24T03:54:47.846Z,88.34
2022-08-24T03:55:47.838Z,88.65
2022-08-24T03:56:47.826Z,88.85
2022-08-24T03:57:47.848Z,89.05
2022-08-24T03:58:47.814Z,88.75
2022-08-24T03:59:47.811Z,89.15
2022-08-24T04:00:47.875Z,88.75
2022-08-24T04:01:47.789Z,88.75
2022-08-24T04:02:47.843Z,89.05
2022-08-24T04:03:47.777Z,88.75
2022-08-24T04:04:47.768Z,88.44
2022-08-24T04:05:47.761Z,88.75
2022-08-24T04:06:47.752Z,88.24
2022-08-24T04:07:47.773Z,88.34
2022-08-24T04:08:47.739Z,88.75
2022-08-24T04:09:47.732Z,88.95
2022-08-24T04:10:47.727Z,89.09
2022-08-24T04:11:48.681Z,89.50
2022-08-24T04:12:47.965Z,89.50
2022-08-24T04:13:48.697Z,89.40
2022-08-24T04:14:47.692Z,89.40
2022-08-24T04:15:47.683Z,89.50
2022-08-24T04:16:48.254Z,89.30
2022-08-24T04:17:48.767Z,89.61
2022-08-24T04:18:47.666Z,89.40
2022-08-24T04:19:47.654Z,89.50
2022-08-24T04:20:47.645Z,89.44
2022-08-24T04:21:47.643Z,89.44
2022-08-24T04:22:47.628Z,89.64
2022-08-24T04:23:48.119Z,89.95
2022-08-24T04:24:47.619Z,89.85
2022-08-24T04:25:47.619Z,89.30
2022-08-24T04:26:47.623Z,89.40
2022-08-24T04:27:47.627Z,89.34
2022-08-24T04:28:47.590Z,89.20
2022-08-24T04:29:47.575Z,90.01
2022-08-24T04:30:47.570Z,89.50
2022-08-24T04:31:47.614Z,89.36
2022-08-24T04:32:47.549Z,88.69
2022-08-24T04:33:47.577Z,89.30
2022-08-24T04:34:48.540Z,89.05
2022-08-24T04:35:47.535Z,89.00
2022-08-24T04:36:47.522Z,88.89
2022-08-24T04:37:47.517Z,88.79
2022-08-24T04:38:47.544Z,89.36
2022-08-24T04:39:47.544Z,89.20
2022-08-24T04:40:47.495Z,89.56
2022-08-24T04:41:47.484Z,89.36
2022-08-24T04:42:47.478Z,89.09
2022-08-24T04:43:47.497Z,89.46
2022-08-24T04:44:47.456Z,89.26
2022-08-24T04:45:47.481Z,89.46
2022-08-24T04:46:47.450Z,90.07
2022-08-24T04:47:47.442Z,90.48
2022-08-24T04:48:47.463Z,89.87
2022-08-24T04:49:47.421Z,90.17
2022-08-24T04:50:47.419Z,90.58
2022-08-24T04:51:47.394Z,90.68
2022-08-24T04:52:48.399Z,89.87
2022-08-24T04:53:47.411Z,90.48
2022-08-24T04:54:47.396Z,89.87
2022-08-24T04:55:47.380Z,89.46
2022-08-24T04:56:47.365Z,88.56
2022-08-24T04:57:47.356Z,87.51
2022-08-24T04:58:47.376Z,86.55
2022-08-24T04:59:47.344Z,85.46
2022-08-24T05:00:47.384Z,84.50
2022-08-24T05:01:47.333Z,83.90
2022-08-24T05:02:47.357Z,83.45
2022-08-24T05:03:47.344Z,82.81
2022-08-24T05:04:47.304Z,81.45
2022-08-24T05:05:47.301Z,80.40
2022-08-24T05:06:47.294Z,78.91
2022-08-24T05:07:48.282Z,78.03
2022-08-24T05:08:47.303Z,77.32
2022-08-24T05:09:47.272Z,75.67
2022-08-24T05:10:47.262Z,75.27
2022-08-24T05:11:50.053Z,75.98
2022-08-24T05:12:47.248Z,75.34
2022-08-24T05:13:47.257Z,74.52
2022-08-24T05:14:47.230Z,74.19
2022-08-24T05:15:47.226Z,73.99
2022-08-24T05:16:52.594Z,73.58
2022-08-24T05:17:50.938Z,74.39
2022-08-24T05:18:47.231Z,74.19
2022-08-24T05:19:47.189Z,73.75
2022-08-24T05:20:47.186Z,73.65
2022-08-24T05:21:47.174Z,73.35
2022-08-24T05:22:47.162Z,73.25
2022-08-24T05:23:47.191Z,73.11
2022-08-24T05:24:47.149Z,72.17
2022-08-24T05:25:47.137Z,71.83
2022-08-24T05:26:47.131Z,70.59
2022-08-24T05:27:47.126Z,70.39
2022-08-24T05:28:47.117Z,71.33
2022-08-24T05:29:47.134Z,70.39
2022-08-24T05:30:47.102Z,70.53
2022-08-24T05:31:47.118Z,70.46
2022-08-24T05:32:47.091Z,68.65
2022-08-24T05:33:47.079Z,69.69
2022-08-24T05:34:47.095Z,71.84
2022-08-24T05:35:47.107Z,73.14
2022-08-24T05:36:47.055Z,73.05
2022-08-24T05:37:47.060Z,73.68
2022-08-24T05:38:47.045Z,73.22
2022-08-24T05:39:47.120Z,74.46
2022-08-24T05:40:47.082Z,74.96
2022-08-24T05:41:47.024Z,75.00
2022-08-24T05:42:47.009Z,75.31
2022-08-24T05:43:47.004Z,75.67
2022-08-24T05:44:47.022Z,76.04
2022-08-24T05:45:46.984Z,74.90
2022-08-24T05:46:47.010Z,73.95
2022-08-24T05:47:46.973Z,74.15
2022-08-24T05:48:52.515Z,73.68
2022-08-24T05:49:47.980Z,72.44
2022-08-24T05:50:46.950Z,71.94
2022-08-24T05:51:46.939Z,71.87
2022-08-24T05:52:46.936Z,73.01
2022-08-24T05:53:46.926Z,74.08
2022-08-24T05:54:46.947Z,75.43
2022-08-24T05:55:46.908Z,75.54
2022-08-24T05:56:46.899Z,75.77
2022-08-24T05:57:46.932Z,76.88
2022-08-24T05:58:46.890Z,76.92
2022-08-24T05:59:46.906Z,77.56
2022-08-24T06:00:46.872Z,78.10
2022-08-24T06:01:46.973Z,79.01
2022-08-24T06:02:46.946Z,79.11
2022-08-24T06:03:46.846Z,79.15
2022-08-24T06:04:46.875Z,79.11
2022-08-24T06:05:46.826Z,79.92
2022-08-24T06:06:48.672Z,80.36
2022-08-24T06:07:46.818Z,81.07
2022-08-24T06:08:46.815Z,80.83
2022-08-24T06:09:46.831Z,80.32
2022-08-24T06:10:46.795Z,79.58
2022-08-24T06:11:46.792Z,78.97
2022-08-24T06:12:46.784Z,79.38
2022-08-24T06:13:46.773Z,79.24
2022-08-24T06:14:47.793Z,78.94
2022-08-24T06:16:04.742Z,78.53
2022-08-24T06:16:48.967Z,78.63
2022-08-24T06:17:46.782Z,79.34
2022-08-24T06:18:46.741Z,78.70
2022-08-24T06:19:46.749Z,78.70
2022-08-24T06:20:46.718Z,77.25
2022-08-24T06:21:46.718Z,77.45
2022-08-24T06:22:46.714Z,76.75
2022-08-24T06:23:46.691Z,77.25
2022-08-24T06:24:46.711Z,77.89
2022-08-24T06:25:46.683Z,78.26
2022-08-24T06:26:49.954Z,78.90
2022-08-24T06:27:46.665Z,77.55
2022-08-24T06:28:46.655Z,77.75
2022-08-24T06:29:46.674Z,77.55
2022-08-24T06:30:46.641Z,77.35
2022-08-24T06:31:46.735Z,77.35
2022-08-24T06:32:46.625Z,77.66
2022-08-24T06:33:46.618Z,77.82
2022-08-24T06:34:46.650Z,77.25
2022-08-24T06:35:47.632Z,77.25
2022-08-24T06:36:47.596Z,77.11
2022-08-24T06:37:46.613Z,77.11
2022-08-24T06:38:46.862Z,76.47
2022-08-24T06:39:46.640Z,75.76
2022-08-24T06:40:46.567Z,75.56
2022-08-24T06:41:46.569Z,75.76
2022-08-24T06:42:46.556Z,75.33
2022-08-24T06:43:46.544Z,75.63
2022-08-24T06:44:46.543Z,75.36
2022-08-24T06:45:46.546Z,75.33
2022-08-24T06:46:46.558Z,75.36
2022-08-24T06:47:46.509Z,75.46
2022-08-24T06:48:46.500Z,76.03
2022-08-24T06:49:46.497Z,75.93
2022-08-24T06:50:46.509Z,75.63
2022-08-24T06:51:50.585Z,75.83
2022-08-24T06:52:47.474Z,77.08
2022-08-24T06:53:46.459Z,76.43
2022-08-24T06:54:46.456Z,75.59
2022-08-24T06:55:46.474Z,75.09
2022-08-24T06:56:46.434Z,74.79
2022-08-24T06:57:50.411Z,74.99
2022-08-24T06:58:48.422Z,75.83
2022-08-24T06:59:46.420Z,75.90
2022-08-24T07:00:46.436Z,75.09
2022-08-24T07:01:46.626Z,74.75
2022-08-24T07:02:47.460Z,74.72
2022-08-24T07:03:46.381Z,75.02
2022-08-24T07:04:46.376Z,75.63
2022-08-24T07:05:46.396Z,75.73
2022-08-24T07:06:46.357Z,76.07
2022-08-24T07:07:46.355Z,77.21
2022-08-24T07:08:46.343Z,77.08
2022-08-24T07:09:46.335Z,76.97
2022-08-24T07:10:46.350Z,77.24
2022-08-24T07:11:47.326Z,75.15
2022-08-24T07:12:47.195Z,75.52
2022-08-24T07:13:47.302Z,73.38
2022-08-24T07:14:46.299Z,73.74
2022-08-24T07:15:46.338Z,72.50
2022-08-24T07:16:46.279Z,71.70
2022-08-24T07:17:46.280Z,73.81
2022-08-24T07:18:49.789Z,74.68
2022-08-24T07:19:47.274Z,72.90
2022-08-24T07:20:46.287Z,72.33
2022-08-24T07:21:46.250Z,72.40
2022-08-24T07:22:46.284Z,71.80
2022-08-24T07:23:46.232Z,71.73
2022-08-24T07:24:46.217Z,70.73
2022-08-24T07:25:49.642Z,70.73
2022-08-24T07:26:47.207Z,71.26
2022-08-24T07:27:46.198Z,71.47
2022-08-24T07:28:46.207Z,71.53
2022-08-24T07:29:53.039Z,70.59
2022-08-24T07:30:48.243Z,69.62
2022-08-24T07:31:46.235Z,69.02
2022-08-24T07:32:46.165Z,68.52
2022-08-24T07:33:46.155Z,69.49
2022-08-24T07:34:46.146Z,68.36
2022-08-24T07:35:46.172Z,68.02
2022-08-24T07:36:46.136Z,66.86
2022-08-24T07:37:46.131Z,67.76
2022-08-24T07:38:46.122Z,67.55
2022-08-24T07:39:46.176Z,67.05
2022-08-24T07:41:09.267Z,67.36
2022-08-24T07:42:20.763Z,67.36
2022-08-24T07:42:48.088Z,66.52
2022-08-24T07:43:46.112Z,67.02
2022-08-24T07:44:46.067Z,66.69
2022-08-24T07:45:46.064Z,66.56
2022-08-24T07:46:46.168Z,66.03
2022-08-24T07:47:54.721Z,65.30
2022-08-24T07:48:48.597Z,64.77
2022-08-24T07:49:46.141Z,64.87
2022-08-24T07:50:46.022Z,64.24
2022-08-24T07:51:46.927Z,64.60
2022-08-24T07:52:46.011Z,64.83
2022-08-24T07:53:53.634Z,64.73
2022-08-24T07:54:48.000Z,64.73
2022-08-24T07:55:46.444Z,66.36
2022-08-24T07:56:46.011Z,66.69
2022-08-24T07:57:45.979Z,66.89
2022-08-24T07:58:45.967Z,66.99
2022-08-24T07:59:45.995Z,66.89
2022-08-24T08:00:45.954Z,65.83
2022-08-24T08:01:46.101Z,65.23
2022-08-24T08:02:46.047Z,66.06
2022-08-24T08:03:45.930Z,66.66
2022-08-24T08:04:45.929Z,66.13
2022-08-24T08:05:45.917Z,65.17
2022-08-24T08:06:46.026Z,64.87
2022-08-24T08:07:48.827Z,64.54
2022-08-24T08:08:45.894Z,64.31
2022-08-24T08:09:45.940Z,63.71
2022-08-24T08:10:45.878Z,63.31
2022-08-24T08:11:45.895Z,63.01
2022-08-24T08:12:45.870Z,63.71
2022-08-24T08:13:45.865Z,63.28
2022-08-24T08:14:45.871Z,62.75
2022-08-24T08:15:45.868Z,62.52
2022-08-24T08:16:45.857Z,61.55
2022-08-24T08:17:45.835Z,63.01
2022-08-24T08:18:52.050Z,63.01
2022-08-24T08:19:46.801Z,62.78
2022-08-24T08:20:45.803Z,63.08
2022-08-24T08:21:45.821Z,62.59
2022-08-24T08:22:45.788Z,63.08
2022-08-24T08:23:45.779Z,62.55
2022-08-24T08:24:45.774Z,62.38
2022-08-24T08:25:47.473Z,62.59
2022-08-24T08:26:46.781Z,62.45
2022-08-24T08:27:45.761Z,61.66
2022-08-24T08:28:45.737Z,61.99
2022-08-24T08:29:45.817Z,60.70
2022-08-24T08:30:45.758Z,60.73
2022-08-24T08:31:45.749Z,60.70
2022-08-24T08:32:45.709Z,60.53
2022-08-24T08:33:45.711Z,60.43
2022-08-24T08:34:45.701Z,60.53
2022-08-24T08:35:45.701Z,61.55
2022-08-24T08:36:45.707Z,61.25
2022-08-24T08:37:45.676Z,60.96
2022-08-24T08:38:45.670Z,60.76
2022-08-24T08:39:45.727Z,60.63
2022-08-24T08:40:45.670Z,60.50
2022-08-24T08:41:45.671Z,60.33
2022-08-24T08:42:45.634Z,59.83
2022-08-24T08:43:45.629Z,60.13
2022-08-24T08:44:45.624Z,59.68
2022-08-24T08:45:45.629Z,58.95
2022-08-24T08:46:45.631Z,58.73
2022-08-24T08:47:45.600Z,57.56
2022-08-24T08:48:45.595Z,57.39
2022-08-24T08:49:45.582Z,58.31
2022-08-24T08:50:45.573Z,59.08
2022-08-24T08:51:45.570Z,58.58
2022-08-24T08:52:45.590Z,58.26
2022-08-24T08:53:45.550Z,58.00
2022-08-24T08:54:45.543Z,56.32
2022-08-24T08:55:45.534Z,56.59
2022-08-24T08:56:45.531Z,56.98
2022-08-24T08:57:45.557Z,55.89
2022-08-24T08:58:57.609Z,56.19
2022-08-24T08:59:46.510Z,55.89
2022-08-24T09:00:45.504Z,55.99
2022-08-24T09:01:47.530Z,56.49
2022-08-24T09:02:45.512Z,56.59
2022-08-24T09:03:45.485Z,56.14
2022-08-24T09:04:45.510Z,56.84
2022-08-24T09:05:45.498Z,56.12
2022-08-24T09:06:45.458Z,56.32
2022-08-24T09:07:45.479Z,55.22
2022-08-24T09:08:52.325Z,55.29
2022-08-24T09:09:46.433Z,55.10
2022-08-24T09:10:45.467Z,54.60
2022-08-24T09:11:45.429Z,54.50
2022-08-24T09:12:45.438Z,53.80
2022-08-24T09:13:45.409Z,55.02
2022-08-24T09:14:45.396Z,55.10
2022-08-24T09:15:45.390Z,54.60
2022-08-24T09:16:45.400Z,54.60
2022-08-24T09:17:45.410Z,54.70
2022-08-24T09:18:45.377Z,54.57
2022-08-24T09:19:45.370Z,53.98
2022-08-24T09:20:45.362Z,54.38
2022-08-24T09:21:45.343Z,54.35
2022-08-24T09:22:45.368Z,53.08
2022-08-24T09:23:45.341Z,53.58
2022-08-24T09:24:45.326Z,53.38
2022-08-24T09:25:45.319Z,53.48
2022-08-24T09:26:45.314Z,52.59
2022-08-24T09:27:45.333Z,52.61
2022-08-24T09:28:46.740Z,53.41
2022-08-24T09:29:45.294Z,53.48
2022-08-24T09:30:45.355Z,52.76
2022-08-24T09:31:45.274Z,52.59
2022-08-24T09:32:45.301Z,52.84
2022-08-24T09:33:45.262Z,52.04
2022-08-24T09:34:45.250Z,51.65
2022-08-24T09:35:45.244Z,51.45
2022-08-24T09:36:45.238Z,51.65
2022-08-24T09:37:45.418Z,52.14
2022-08-24T09:38:45.222Z,51.23
2022-08-24T09:39:45.257Z,49.54
2022-08-24T09:40:45.215Z,49.46
2022-08-24T09:41:45.201Z,51.28
2022-08-24T09:42:45.221Z,51.42
2022-08-24T09:43:45.187Z,49.59
2022-08-24T09:44:45.178Z,48.08
2022-08-24T09:45:46.212Z,47.39
2022-08-24T09:46:45.163Z,47.19
2022-08-24T09:47:45.184Z,48.30
2022-08-24T09:48:45.153Z,49.10
2022-08-24T09:49:45.146Z,48.01
2022-08-24T09:50:45.139Z,47.81
2022-08-24T09:51:45.135Z,47.52
2022-08-24T09:52:45.162Z,47.41
2022-08-24T09:53:45.114Z,47.31
2022-08-24T09:54:45.114Z,46.52
2022-08-24T09:55:45.106Z,46.12
2022-08-24T09:56:45.088Z,45.63
2022-08-24T09:57:59.814Z,45.06
2022-08-24T09:58:47.076Z,45.56
2022-08-24T09:59:45.068Z,45.73
2022-08-24T10:00:45.118Z,44.74
2022-08-24T10:01:45.051Z,44.64
2022-08-24T10:02:45.105Z,43.55
2022-08-24T10:03:45.075Z,43.57
2022-08-24T10:04:45.128Z,43.95
2022-08-24T10:05:45.139Z,43.35
2022-08-24T10:06:45.009Z,43.04
2022-08-24T10:07:45.045Z,43.02
2022-08-24T10:08:45.011Z,43.02
2022-08-24T10:09:44.993Z,42.21
2022-08-24T10:10:44.982Z,43.31
2022-08-24T10:11:44.982Z,42.03
2022-08-24T10:12:44.998Z,42.14
2022-08-24T10:13:44.995Z,42.14
2022-08-24T10:14:44.951Z,42.43
2022-08-24T10:15:44.957Z,42.25
2022-08-24T10:16:44.986Z,42.72
2022-08-24T10:17:44.937Z,41.44
2022-08-24T10:18:44.955Z,41.71
2022-08-24T10:19:44.929Z,41.52
2022-08-24T10:20:47.879Z,42.22
2022-08-24T10:21:44.914Z,42.21
2022-08-24T10:22:44.901Z,41.22
2022-08-24T10:23:44.915Z,41.95
2022-08-24T10:24:44.885Z,41.81
2022-08-24T10:25:44.874Z,41.49
2022-08-24T10:26:45.153Z,41.69
2022-08-24T10:27:44.869Z,41.61
2022-08-24T10:28:44.894Z,41.04
2022-08-24T10:29:44.851Z,40.66
2022-08-24T10:30:44.839Z,40.47
2022-08-24T10:31:44.868Z,41.53
2022-08-24T10:32:44.823Z,41.44
2022-08-24T10:33:44.841Z,40.34
2022-08-24T10:34:44.806Z,41.89
2022-08-24T10:35:44.795Z,40.61
2022-08-24T10:36:44.797Z,41.20
2022-08-24T10:37:44.781Z,41.31
2022-08-24T10:38:44.813Z,41.22
2022-08-24T10:39:44.776Z,41.61
2022-08-24T10:40:44.854Z,41.02
2022-08-24T10:41:44.753Z,40.23
2022-08-24T10:42:44.747Z,41.61
2022-08-24T10:43:44.761Z,40.23
2022-08-24T10:44:44.738Z,40.50
2022-08-24T10:45:46.735Z,40.88
2022-08-24T10:46:44.716Z,39.58
2022-08-24T10:47:44.722Z,40.29
2022-08-24T10:48:44.730Z,41.00
2022-08-24T10:49:44.697Z,39.60
2022-08-24T10:50:44.698Z,41.30
2022-08-24T10:51:44.682Z,41.20
2022-08-24T10:52:44.680Z,41.59
2022-08-24T10:53:44.696Z,41.79
2022-08-24T10:54:44.669Z,41.16
2022-08-24T10:55:44.659Z,41.33
2022-08-24T10:56:44.642Z,41.16
2022-08-24T10:57:44.638Z,41.28
2022-08-24T10:58:44.656Z,42.36
2022-08-24T10:59:44.620Z,41.97
2022-08-24T11:00:44.664Z,40.78
2022-08-24T11:01:44.635Z,40.90
2022-08-24T11:02:44.595Z,39.99
2022-08-24T11:03:44.623Z,40.69
2022-08-24T11:04:44.584Z,40.29
2022-08-24T11:05:44.576Z,40.58
2022-08-24T11:06:44.575Z,40.94
2022-08-24T11:07:44.561Z,40.84
2022-08-24T11:08:44.581Z,40.74
2022-08-24T11:09:44.560Z,41.16
2022-08-24T11:10:44.551Z,41.36
2022-08-24T11:11:44.535Z,41.67
2022-08-24T11:12:44.526Z,41.46
2022-08-24T11:13:44.573Z,41.51
2022-08-24T11:14:44.519Z,41.00
2022-08-24T11:15:44.510Z,41.00
2022-08-24T11:16:44.562Z,41.41
2022-08-24T11:17:44.492Z,41.04
2022-08-24T11:18:44.506Z,41.73
2022-08-24T11:19:44.473Z,41.22
2022-08-24T11:20:44.467Z,41.49
2022-08-24T11:21:44.464Z,41.30
2022-08-24T11:22:44.454Z,41.17
2022-08-24T11:23:44.479Z,41.30
2022-08-24T11:24:44.444Z,41.12
2022-08-24T11:25:44.433Z,41.83
2022-08-24T11:26:44.430Z,42.13
2022-08-24T11:27:44.418Z,41.43
2022-08-24T11:28:44.489Z,41.39
2022-08-24T11:29:44.420Z,39.58
2022-08-24T11:30:44.403Z,39.76
2022-08-24T11:31:44.417Z,39.37
2022-08-24T11:32:44.380Z,39.95
2022-08-24T11:33:44.414Z,39.70
2022-08-24T11:34:44.367Z,39.94
2022-08-24T11:35:44.364Z,40.92
2022-08-24T11:36:44.352Z,40.61
2022-08-24T11:37:44.344Z,40.48
2022-08-24T11:38:45.886Z,40.09
2022-08-24T11:39:44.369Z,40.96
2022-08-24T11:40:44.333Z,39.94
2022-08-24T11:41:44.316Z,38.13
2022-08-24T11:42:44.307Z,38.68
2022-08-24T11:43:44.299Z,39.70
2022-08-24T11:44:44.314Z,39.92
2022-08-24T11:45:44.287Z,39.89
2022-08-24T11:46:44.348Z,39.42
2022-08-24T11:47:44.272Z,40.48
2022-08-24T11:48:44.263Z,39.68
2022-08-24T11:49:44.287Z,40.08
2022-08-24T11:50:44.251Z,38.78
2022-08-24T11:51:44.246Z,37.57
2022-08-24T11:52:44.237Z,38.87
2022-08-24T11:53:44.241Z,38.66
2022-08-24T11:54:44.250Z,38.36
2022-08-24T11:55:47.298Z,38.30
2022-08-24T11:56:45.206Z,38.70
2022-08-24T11:57:47.533Z,38.60
2022-08-24T11:58:44.196Z,39.26
2022-08-24T11:59:44.207Z,38.85
2022-08-24T12:00:44.179Z,38.64
2022-08-24T12:01:44.847Z,37.93
2022-08-24T12:02:44.254Z,37.13
2022-08-24T12:03:44.151Z,37.55
2022-08-24T12:04:44.179Z,38.42
2022-08-24T12:05:44.146Z,37.63
2022-08-24T12:06:44.224Z,37.63
2022-08-24T12:07:44.127Z,37.65
2022-08-24T12:08:45.121Z,37.85
2022-08-24T12:09:44.143Z,38.24
2022-08-24T12:10:44.106Z,37.84
2022-08-24T12:11:44.101Z,37.76
2022-08-24T12:12:44.093Z,37.63
2022-08-24T12:13:44.108Z,38.26
2022-08-24T12:14:44.108Z,39.07
2022-08-24T12:15:45.903Z,38.68
2022-08-24T12:16:44.106Z,39.37
2022-08-24T12:17:44.057Z,38.89
2022-08-24T12:18:44.050Z,38.60
2022-08-24T12:19:44.041Z,39.76
2022-08-24T12:20:44.055Z,39.37
2022-08-24T12:21:44.031Z,38.60
2022-08-24T12:22:44.016Z,39.18
2022-08-24T12:23:44.012Z,38.58
2022-08-24T12:24:44.008Z,38.66
2022-08-24T12:25:44.101Z,37.76
2022-08-24T12:26:43.995Z,38.23
2022-08-24T12:27:43.988Z,38.03
2022-08-24T12:28:43.977Z,37.63
2022-08-24T12:29:43.965Z,39.05
2022-08-24T12:30:43.987Z,39.86
2022-08-24T12:31:44.009Z,39.28
2022-08-24T12:32:43.947Z,39.97
2022-08-24T12:33:43.949Z,39.56
2022-08-24T12:34:43.946Z,39.54
2022-08-24T12:35:43.948Z,38.93
2022-08-24T12:36:43.919Z,38.64
2022-08-24T12:37:43.925Z,39.44
2022-08-24T12:38:43.923Z,39.56
2022-08-24T12:39:43.978Z,39.76
2022-08-24T12:40:43.932Z,40.05
2022-08-24T12:41:43.905Z,39.76
2022-08-24T12:42:45.098Z,39.84
2022-08-24T12:43:43.865Z,40.05
2022-08-24T12:44:43.858Z,39.95
2022-08-24T12:45:43.871Z,40.05
2022-08-24T12:46:43.872Z,39.97
2022-08-24T12:47:43.845Z,39.97
2022-08-24T12:48:43.834Z,39.66
2022-08-24T12:49:43.824Z,40.05
2022-08-24T12:50:45.463Z,39.64
2022-08-24T12:51:43.808Z,39.84
2022-08-24T12:52:43.804Z,39.52